createdAt,value
2023-02-01T00:10:58.704Z,96.5
2023-02-01T00:22:59.087Z,96.4
2023-02-01T00:34:58.627Z,96.0
2023-02-01T00:46:58.700Z,95.8
2023-02-01T00:58:58.669Z,95.4
2023-02-01T01:10:58.697Z,95.3
2023-02-01T01:22:58.635Z,95.5
2023-02-01T01:34:58.705Z,95.8
2023-02-01T01:46:58.836Z,95.7
2023-02-01T01:58:58.622Z,95.4
2023-02-01T02:10:58.737Z,95.6
2023-02-01T02:22:58.617Z,95.1
2023-02-01T02:34:58.637Z,93.7
2023-02-01T02:46:58.621Z,92.2
2023-02-01T02:58:58.705Z,89.9
2023-02-01T03:10:58.701Z,90.7
2023-02-01T03:22:58.617Z,91.8
2023-02-01T03:34:58.706Z,91.6
2023-02-01T03:46:58.729Z,91.8
2023-02-01T03:58:58.727Z,91.1
2023-02-01T04:10:58.723Z,91.1
2023-02-01T04:22:58.614Z,90.3
2023-02-01T04:34:58.619Z,90.0
2023-02-01T04:46:58.639Z,89.4
2023-02-01T04:58:58.718Z,88.4
2023-02-01T05:10:58.712Z,88.9
2023-02-01T05:22:58.707Z,89.3
2023-02-01T05:34:58.739Z,89.5
2023-02-01T05:46:58.708Z,88.3
2023-02-01T05:58:58.746Z,89.7
2023-02-01T06:10:58.727Z,88.5
2023-02-01T06:22:58.720Z,86.5
2023-02-01T06:34:58.730Z,85.2
2023-02-01T06:46:58.839Z,85.7
2023-02-01T06:58:58.730Z,87.2
2023-02-01T07:10:58.621Z,86.9
2023-02-01T07:22:58.632Z,85.4
2023-02-01T07:34:58.676Z,85.4
2023-02-01T07:46:58.733Z,85.4
2023-02-01T07:58:59.600Z,85.2
2023-02-01T08:10:58.643Z,84.5
2023-02-01T08:22:58.699Z,84.3
2023-02-01T08:34:58.733Z,84.6
2023-02-01T08:46:58.741Z,83.3
2023-02-01T08:58:58.718Z,83.7
2023-02-01T09:10:58.703Z,83.0
2023-02-01T09:22:58.731Z,82.7
2023-02-01T09:34:58.703Z,82.2
2023-02-01T09:46:58.708Z,81.6
2023-02-01T09:58:58.698Z,81.5
2023-02-01T10:10:58.737Z,80.8
2023-02-01T10:23:22.731Z,80.2
2023-02-01T10:34:58.731Z,79.8
2023-02-01T10:46:58.646Z,79.5
2023-02-01T10:58:58.618Z,78.4
2023-02-01T11:10:58.617Z,77.9
2023-02-01T11:22:58.699Z,78.3
2023-02-01T11:34:58.729Z,78.5
2023-02-01T11:46:58.733Z,77.8
2023-02-01T11:58:58.712Z,76.1
2023-02-01T12:10:58.618Z,76.9
2023-02-01T12:22:58.625Z,75.0
2023-02-01T12:34:58.622Z,74.9
2023-02-01T12:46:58.632Z,74.7
2023-02-01T12:58:58.711Z,73.9
2023-02-01T13:10:58.619Z,73.0
2023-02-01T13:22:58.645Z,72.7
2023-02-01T13:34:58.741Z,72.1
2023-02-01T13:46:58.716Z,71.3
2023-02-01T13:58:58.724Z,74.5
2023-02-01T14:10:58.633Z,75.0
2023-02-01T14:22:58.673Z,77.0
2023-02-01T14:34:58.678Z,78.9
2023-02-01T14:46:58.738Z,77.0
2023-02-01T14:58:58.765Z,75.6
2023-02-01T15:10:58.619Z,75.8
2023-02-01T15:22:58.621Z,73.8
2023-02-01T15:34:58.662Z,73.2
2023-02-01T15:46:58.644Z,73.6
2023-02-01T15:58:58.653Z,73.0
2023-02-01T16:10:58.655Z,73.7
2023-02-01T16:22:58.719Z,75.1
2023-02-01T16:34:58.736Z,78.3
2023-02-01T16:46:58.709Z,82.2
2023-02-01T16:58:58.647Z,87.8
2023-02-01T17:10:58.704Z,90.2
2023-02-01T17:22:58.691Z,91.6
2023-02-01T17:34:58.746Z,91.9
2023-02-01T17:46:58.739Z,92.9
2023-02-01T17:58:58.685Z,93.8
2023-02-01T18:10:58.749Z,93.3
2023-02-01T18:22:58.642Z,94.1
2023-02-01T18:35:01.166Z,94.2
2023-02-01T18:46:58.725Z,93.6
2023-02-01T18:58:58.728Z,92.8
2023-02-01T19:10:58.738Z,93.1
2023-02-01T19:22:58.717Z,91.8
2023-02-01T19:34:58.700Z,91.1
2023-02-01T19:46:58.712Z,90.2
2023-02-01T19:58:58.619Z,89.2
2023-02-01T20:10:57.860Z,87.9
2023-02-01T20:22:57.765Z,87.8
2023-02-01T20:34:58.940Z,87.5
2023-02-01T20:46:58.893Z,87.5
2023-02-01T20:58:58.655Z,86.3
2023-02-01T21:10:58.735Z,85.4
2023-02-01T21:22:58.662Z,84.5
2023-02-01T21:34:58.775Z,84.4
2023-02-01T21:46:58.665Z,83.5
2023-02-01T21:58:58.661Z,84.2
2023-02-01T22:10:58.763Z,84.1
2023-02-01T22:22:58.643Z,84.6
2023-02-01T22:34:58.742Z,84.3
2023-02-01T22:46:58.722Z,84.3
2023-02-01T22:58:58.624Z,84.4
2023-02-01T23:10:58.622Z,83.7
2023-02-01T23:22:58.612Z,83.1
2023-02-01T23:34:58.706Z,82.6
2023-02-01T23:46:58.668Z,83.2
2023-02-01T23:58:58.652Z,84.2
